createdAt,value
2022-11-29T00:00:24.328Z,100379.91
2022-11-29T00:02:54.450Z,100375.47
2022-11-29T00:05:26.523Z,100376.41
2022-11-29T00:07:54.937Z,100372.34
2022-11-29T00:10:23.312Z,100373.06
2022-11-29T00:12:51.395Z,100367.09
2022-11-29T00:15:19.480Z,100370.78
2022-11-29T00:17:51.671Z,100369.91
2022-11-29T00:20:23.267Z,100363.22
2022-11-29T00:22:51.394Z,100362.38
2022-11-29T00:25:20.350Z,100370.38
2022-11-29T00:27:51.332Z,100372.03
2022-11-29T00:30:21.798Z,100369.41
2022-11-29T00:32:51.805Z,100365.94
2022-11-29T00:35:19.877Z,100373.81
2022-11-29T00:37:50.225Z,100359.75
2022-11-29T00:40:20.749Z,100365.00
2022-11-29T00:42:49.340Z,100368.47
2022-11-29T00:45:17.790Z,100361.56
2022-11-29T00:47:46.385Z,100368.38
2022-11-29T00:50:16.075Z,100370.13
2022-11-29T00:52:46.145Z,100366.78
2022-11-29T00:55:14.862Z,100366.16
2022-11-29T00:57:47.914Z,100373.81
2022-11-29T01:00:17.264Z,100370.47
2022-11-29T01:02:46.154Z,100367.13
2022-11-29T01:05:17.757Z,100370.56
2022-11-29T01:07:47.069Z,100365.31
2022-11-29T01:10:17.127Z,100367.84
2022-11-29T01:12:45.310Z,100366.25
2022-11-29T01:15:14.044Z,100369.72
2022-11-29T01:17:42.147Z,100376.03
2022-11-29T01:20:17.071Z,100372.53
2022-11-29T01:22:49.412Z,100369.09
2022-11-29T01:25:19.308Z,100375.06
2022-11-29T01:27:48.134Z,100377.69
2022-11-29T01:30:18.759Z,100380.31
2022-11-29T01:32:47.256Z,100384.72
2022-11-29T01:35:18.551Z,100382.94
2022-11-29T01:37:51.963Z,100380.94
2022-11-29T01:40:20.276Z,100386.19
2022-11-29T01:42:51.440Z,100389.63
2022-11-29T01:45:24.061Z,100393.00
2022-11-29T01:47:56.986Z,100386.72
2022-11-29T01:50:27.034Z,100393.66
2022-11-29T01:52:57.382Z,100393.66
2022-11-29T01:55:27.442Z,100394.47
2022-11-29T01:57:56.299Z,100395.22
2022-11-29T02:00:25.529Z,100390.88
2022-11-29T02:03:00.777Z,100389.22
2022-11-29T02:05:36.256Z,100385.66
2022-11-29T02:08:04.835Z,100390.69
2022-11-29T02:10:45.501Z,100382.09
2022-11-29T02:13:28.002Z,100383.78
2022-11-29T02:16:04.943Z,100378.84
2022-11-29T02:18:51.928Z,100381.25
2022-11-29T02:21:40.828Z,100384.72
2022-11-29T02:24:45.636Z,100387.34
2022-11-29T02:27:52.180Z,100389.97
2022-11-29T02:30:26.010Z,100389.97
2022-11-29T02:33:27.709Z,100390.06
2022-11-29T02:36:30.106Z,100389.97
2022-11-29T02:39:15.626Z,100392.47
2022-11-29T02:42:06.740Z,100391.75
2022-11-29T02:44:53.791Z,100396.75
2022-11-29T02:47:30.357Z,100396.56
2022-11-29T02:50:14.186Z,100400.97
2022-11-29T02:52:54.536Z,100398.25
2022-11-29T02:55:30.665Z,100397.19
2022-11-29T02:58:05.058Z,100399.91
2022-11-29T03:00:38.151Z,100400.97
2022-11-29T03:03:14.914Z,100401.81
2022-11-29T03:05:50.937Z,100399.19
2022-11-29T03:08:29.258Z,100406.84
2022-11-29T03:11:04.679Z,100410.41
2022-11-29T03:13:47.600Z,100415.66
2022-11-29T03:16:29.722Z,100418.19
2022-11-29T03:19:07.139Z,100411.38
2022-11-29T03:21:47.191Z,100416.69
2022-11-29T03:24:27.223Z,100415.75
2022-11-29T03:27:03.267Z,100424.47
2022-11-29T03:29:41.482Z,100418.38
2022-11-29T03:32:17.438Z,100420.06
2022-11-29T03:34:57.900Z,100423.53
2022-11-29T03:37:31.369Z,100427.91
2022-11-29T03:40:07.641Z,100425.19
2022-11-29T03:42:43.819Z,100426.06
2022-11-29T03:45:18.898Z,100426.16
2022-11-29T03:47:58.949Z,100429.72
2022-11-29T03:50:35.167Z,100426.25
2022-11-29T03:53:14.858Z,100434.97
2022-11-29T03:56:05.171Z,100434.09
2022-11-29T03:58:55.024Z,100434.88
2022-11-29T04:01:48.189Z,100428.78
2022-11-29T04:04:49.434Z,100434.00
2022-11-29T04:07:35.702Z,100434.00
2022-11-29T04:10:22.680Z,100434.97
2022-11-29T04:13:11.055Z,100431.50
2022-11-29T04:16:03.166Z,100429.81
2022-11-29T04:19:05.235Z,100439.34
2022-11-29T04:21:53.205Z,100442.81
2022-11-29T04:24:51.980Z,100440.22
2022-11-29T04:27:45.360Z,100445.34
2022-11-29T04:30:21.402Z,100456.56
2022-11-29T04:33:29.670Z,100452.16
2022-11-29T04:36:27.768Z,100451.09
2022-11-29T04:39:16.646Z,100460.66
2022-11-29T04:42:14.869Z,100460.78
2022-11-29T04:44:56.991Z,100468.75
2022-11-29T04:47:52.379Z,100459.19
2022-11-29T04:50:39.202Z,100460.97
2022-11-29T04:53:29.945Z,100461.72
2022-11-29T04:56:07.986Z,100473.03
2022-11-29T04:58:41.752Z,100473.75
2022-11-29T05:01:21.068Z,100475.47
2022-11-29T05:03:58.176Z,100478.81
2022-11-29T05:06:37.121Z,100477.03
2022-11-29T05:09:16.843Z,100477.16
2022-11-29T05:11:54.407Z,100483.34
2022-11-29T05:14:36.804Z,100481.53
2022-11-29T05:17:26.069Z,100486.78
2022-11-29T05:20:09.535Z,100492.97
2022-11-29T05:22:47.401Z,100485.97
2022-11-29T05:25:31.585Z,100485.84
2022-11-29T05:28:10.209Z,100496.31
2022-11-29T05:30:55.132Z,100498.94
2022-11-29T05:33:37.622Z,100496.44
2022-11-29T05:36:24.964Z,100499.81
2022-11-29T05:39:07.262Z,100505.03
2022-11-29T05:41:52.536Z,100505.13
2022-11-29T05:44:32.752Z,100509.56
2022-11-29T05:47:10.036Z,100504.31
2022-11-29T05:49:44.722Z,100512.19
2022-11-29T05:52:24.490Z,100511.25
2022-11-29T05:55:07.339Z,100513.88
2022-11-29T05:57:44.569Z,100518.25
2022-11-29T06:00:16.773Z,100513.00
2022-11-29T06:02:59.105Z,100520.06
2022-11-29T06:05:36.726Z,100521.72
2022-11-29T06:08:17.663Z,100519.09
2022-11-29T06:10:57.682Z,100523.50
2022-11-29T06:13:38.306Z,100525.19
2022-11-29T06:16:32.332Z,100524.22
2022-11-29T06:19:28.125Z,100530.41
2022-11-29T06:22:11.669Z,100530.41
2022-11-29T06:24:56.428Z,100532.09
2022-11-29T06:27:44.548Z,100539.16
2022-11-29T06:30:16.039Z,100531.19
2022-11-29T06:32:51.841Z,100540.81
2022-11-29T06:35:37.588Z,100548.59
2022-11-29T06:38:13.728Z,100547.66
2022-11-29T06:40:46.410Z,100545.13
2022-11-29T06:43:15.689Z,100542.41
2022-11-29T06:45:50.371Z,100547.66
2022-11-29T06:48:25.867Z,100550.19
2022-11-29T06:51:01.384Z,100551.00
2022-11-29T06:53:39.774Z,100555.31
2022-11-29T06:56:20.599Z,100554.47
2022-11-29T06:59:00.893Z,100550.91
2022-11-29T07:01:40.579Z,100559.41
2022-11-29T07:04:31.258Z,100558.56
2022-11-29T07:07:01.059Z,100560.25
2022-11-29T07:09:35.046Z,100556.47
2022-11-29T07:12:08.396Z,100557.44
2022-11-29T07:14:37.326Z,100567.69
2022-11-29T07:17:11.326Z,100576.22
2022-11-29T07:19:52.946Z,100569.28
2022-11-29T07:22:41.682Z,100577.06
2022-11-29T07:25:21.302Z,100578.53
2022-11-29T07:28:04.168Z,100572.13
2022-11-29T07:30:43.010Z,100579.91
2022-11-29T07:33:19.874Z,100582.53
2022-11-29T07:35:56.284Z,100585.25
2022-11-29T07:38:32.950Z,100589.78
2022-11-29T07:41:13.061Z,100585.25
2022-11-29T07:43:52.750Z,100589.47
2022-11-29T07:46:23.891Z,100594.50
2022-11-29T07:48:54.133Z,100596.28
2022-11-29T07:51:22.687Z,100592.50
2022-11-29T07:53:50.777Z,100597.59
2022-11-29T07:56:19.192Z,100602.63
2022-11-29T07:58:49.280Z,100607.56
2022-11-29T08:01:17.727Z,100605.56
2022-11-29T08:03:46.203Z,100603.78
2022-11-29T08:06:15.020Z,100604.53
2022-11-29T08:08:44.383Z,100606.94
2022-11-29T08:11:13.752Z,100605.06
2022-11-29T08:13:44.023Z,100604.94
2022-11-29T08:16:20.497Z,100601.41
2022-11-29T08:18:49.686Z,100612.53
2022-11-29T08:21:20.503Z,100610.00
2022-11-29T08:23:50.779Z,100616.19
2022-11-29T08:26:26.920Z,100611.78
2022-11-29T08:28:59.648Z,100621.31
2022-11-29T08:31:32.311Z,100621.97
2022-11-29T08:34:00.814Z,100620.91
2022-11-29T08:36:29.838Z,100626.91
2022-11-29T08:39:04.709Z,100633.00
2022-11-29T08:41:36.262Z,100630.38
2022-11-29T08:44:05.738Z,100627.75
2022-11-29T08:46:52.874Z,100628.47
2022-11-29T08:49:23.669Z,100638.25
2022-11-29T08:51:53.024Z,100639.09
2022-11-29T08:54:20.019Z,100644.34
2022-11-29T09:00:09.679Z,100648.56
2022-11-29T09:02:39.236Z,100655.50
2022-11-29T09:05:10.184Z,100655.28
2022-11-29T09:07:42.181Z,100654.44
2022-11-29T09:10:12.227Z,100650.75
2022-11-29T09:12:41.387Z,100659.25
2022-11-29T09:15:12.053Z,100657.25
2022-11-29T09:17:44.610Z,100671.44
2022-11-29T09:20:13.618Z,100672.28
2022-11-29T09:22:46.734Z,100676.91
2022-11-29T09:25:16.119Z,100675.75
2022-11-29T09:27:44.488Z,100677.22
2022-11-29T09:30:19.279Z,100671.88
2022-11-29T09:32:52.834Z,100673.34
2022-11-29T09:35:22.104Z,100681.97
2022-11-29T09:37:51.740Z,100688.06
2022-11-29T09:40:26.048Z,100693.00
2022-11-29T09:43:01.147Z,100703.00
2022-11-29T09:45:33.845Z,100700.38
2022-11-29T09:48:27.995Z,100703.41
2022-11-29T09:51:10.359Z,100701.28
2022-11-29T09:53:56.491Z,100703.28
2022-11-29T09:56:34.922Z,100710.75
2022-11-29T09:59:06.014Z,100706.03
2022-11-29T10:01:39.373Z,100705.00
2022-11-29T10:04:17.272Z,100709.50
2022-11-29T10:06:55.609Z,100702.88
2022-11-29T10:09:33.561Z,100710.25
2022-11-29T10:12:13.886Z,100712.00
2022-11-29T10:14:52.246Z,100707.38
2022-11-29T10:17:38.158Z,100702.13
2022-11-29T10:20:13.730Z,100704.22
2022-11-29T10:22:53.543Z,100702.34
2022-11-29T10:25:26.671Z,100699.41
2022-11-29T10:27:55.939Z,100703.28
2022-11-29T10:30:24.602Z,100705.31
2022-11-29T10:32:59.226Z,100699.72
2022-11-29T10:35:30.418Z,100700.25
2022-11-29T10:40:54.263Z,100695.84
2022-11-29T10:43:24.994Z,100696.47
2022-11-29T10:45:56.332Z,100701.00
2022-11-29T10:48:32.104Z,100694.38
2022-11-29T10:51:05.301Z,100696.28
2022-11-29T10:53:38.610Z,100695.41
2022-11-29T10:56:09.466Z,100700.69
2022-11-29T10:58:37.643Z,100697.41
2022-11-29T11:01:12.126Z,100698.28
2022-11-29T11:03:48.945Z,100700.78
2022-11-29T11:06:26.417Z,100699.53
2022-11-29T11:08:57.567Z,100704.47
2022-11-29T11:11:30.747Z,100699.94
2022-11-29T11:14:01.498Z,100708.44
2022-11-29T11:16:36.754Z,100710.84
2022-11-29T11:19:28.314Z,100708.44
2022-11-29T11:21:59.984Z,100708.56
2022-11-29T11:24:31.234Z,100712.03
2022-11-29T11:27:00.456Z,100709.19
2022-11-29T11:29:36.621Z,100716.25
2022-11-29T11:32:09.168Z,100716.13
2022-11-29T11:34:52.741Z,100718.66
2022-11-29T11:37:26.913Z,100719.50
2022-11-29T11:39:57.506Z,100721.91
2022-11-29T11:42:40.890Z,100724.31
2022-11-29T11:45:31.785Z,100713.69
2022-11-29T11:48:03.545Z,100714.41
2022-11-29T11:50:34.900Z,100711.69
2022-11-29T11:53:08.539Z,100719.06
2022-11-29T11:55:40.765Z,100726.31
2022-11-29T11:58:18.479Z,100731.16
2022-11-29T12:01:05.737Z,100731.06
2022-11-29T12:03:39.387Z,100732.53
2022-11-29T12:06:27.620Z,100723.56
2022-11-29T12:09:03.700Z,100729.56
2022-11-29T12:11:42.915Z,100722.31
2022-11-29T12:14:20.036Z,100729.88
2022-11-29T12:16:51.093Z,100728.94
2022-11-29T12:19:24.643Z,100721.75
2022-11-29T12:22:00.709Z,100728.69
2022-11-29T12:24:36.787Z,100737.44
2022-11-29T12:27:12.179Z,100735.66
2022-11-29T12:29:41.710Z,100735.97
2022-11-29T12:32:25.868Z,100737.88
2022-11-29T12:35:14.774Z,100740.50
2022-11-29T12:37:56.803Z,100744.94
2022-11-29T12:40:38.452Z,100748.47
2022-11-29T12:43:18.553Z,100747.66
2022-11-29T12:45:54.638Z,100742.41
2022-11-29T12:48:35.209Z,100744.63
2022-11-29T12:51:13.710Z,100739.97
2022-11-29T12:53:57.064Z,100744.06
2022-11-29T12:56:38.467Z,100746.50
2022-11-29T12:59:27.242Z,100744.50
2022-11-29T13:02:21.688Z,100748.56
2022-11-29T13:05:15.254Z,100747.31
2022-11-29T13:08:00.641Z,100743.72
2022-11-29T13:10:53.421Z,100749.81
2022-11-29T13:13:40.008Z,100743.59
2022-11-29T13:16:22.983Z,100748.31
2022-11-29T13:19:03.804Z,100750.72
2022-11-29T13:21:41.602Z,100751.34
2022-11-29T13:24:17.722Z,100746.84
2022-11-29T13:26:47.447Z,100751.03
2022-11-29T13:29:20.024Z,100747.56
2022-11-29T13:31:52.453Z,100754.84
2022-11-29T13:34:27.045Z,100754.41
2022-11-29T13:37:08.929Z,100756.22
2022-11-29T13:39:52.178Z,100752.97
2022-11-29T13:42:29.232Z,100757.59
2022-11-29T13:45:05.659Z,100762.00
2022-11-29T13:47:48.790Z,100758.66
2022-11-29T13:50:46.566Z,100759.63
2022-11-29T13:53:18.933Z,100764.03
2022-11-29T13:56:00.213Z,100760.66
2022-11-29T13:58:41.624Z,100766.88
2022-11-29T14:01:17.181Z,100771.50
2022-11-29T14:04:01.673Z,100770.88
2022-11-29T14:06:35.199Z,100768.34
2022-11-29T14:09:29.651Z,100777.19
2022-11-29T14:12:07.566Z,100780.69
2022-11-29T14:14:49.682Z,100779.00
2022-11-29T14:18:13.424Z,100775.75
2022-11-29T14:20:55.394Z,100781.19
2022-11-29T14:23:41.613Z,100784.06
2022-11-29T14:26:29.167Z,100790.28
2022-11-29T14:28:59.392Z,100783.28
2022-11-29T14:31:54.207Z,100790.13
2022-11-29T14:34:45.137Z,100784.78
2022-11-29T14:37:37.310Z,100789.31
2022-11-29T14:40:22.001Z,100793.00
2022-11-29T14:42:52.833Z,100792.13
2022-11-29T14:45:31.847Z,100793.00
2022-11-29T14:48:01.786Z,100793.94
2022-11-29T14:50:36.961Z,100792.13
2022-11-29T14:53:28.575Z,100795.41
2022-11-29T14:56:31.537Z,100797.19
2022-11-29T14:59:33.091Z,100809.41
2022-11-29T15:02:05.520Z,100810.44
2022-11-29T15:04:38.148Z,100813.09
2022-11-29T15:07:08.686Z,100811.28
2022-11-29T15:09:39.474Z,100816.53
2022-11-29T15:12:11.320Z,100823.69
2022-11-29T15:14:50.755Z,100822.97
2022-11-29T15:17:28.830Z,100814.94
2022-11-29T15:20:36.249Z,100817.81
2022-11-29T15:23:07.726Z,100824.00
2022-11-29T15:25:47.511Z,100818.66
2022-11-29T15:28:23.765Z,100822.00
2022-11-29T15:31:04.029Z,100817.72
2022-11-29T15:33:38.016Z,100823.06
2022-11-29T15:36:12.490Z,100824.09
2022-11-29T15:38:45.639Z,100830.31
2022-11-29T15:41:23.330Z,100837.47
2022-11-29T15:43:55.177Z,100834.84
2022-11-29T15:46:27.947Z,100840.19
2022-11-29T15:48:56.881Z,100845.34
2022-11-29T15:51:31.282Z,100845.44
2022-11-29T15:54:12.706Z,100851.66
2022-11-29T15:56:48.442Z,100847.44
2022-11-29T15:59:23.545Z,100850.94
2022-11-29T16:01:57.339Z,100852.78
2022-11-29T16:04:27.196Z,100852.91
2022-11-29T16:06:58.907Z,100850.28
2022-11-29T16:09:35.935Z,100853.97
2022-11-29T16:12:13.327Z,100857.41
2022-11-29T16:14:50.662Z,100851.34
2022-11-29T16:17:20.091Z,100861.22
2022-11-29T16:19:49.324Z,100863.84
2022-11-29T16:22:24.303Z,100856.91
2022-11-29T16:25:01.965Z,100862.97
2022-11-29T16:27:37.900Z,100868.16
2022-11-29T16:30:07.938Z,100869.81
2022-11-29T16:32:39.209Z,100867.19
2022-11-29T16:35:13.861Z,100870.78
2022-11-29T16:37:46.930Z,100872.66
2022-11-29T16:40:26.076Z,100876.34
2022-11-29T16:43:24.097Z,100866.13
2022-11-29T16:46:32.356Z,100866.31
2022-11-29T16:49:04.114Z,100871.78
2022-11-29T16:51:39.864Z,100863.34
2022-11-29T16:54:33.825Z,100865.16
2022-11-29T16:57:05.707Z,100868.91
2022-11-29T16:59:36.488Z,100874.25
2022-11-29T17:02:07.300Z,100876.16
2022-11-29T17:04:36.512Z,100875.50
2022-11-29T17:07:10.523Z,100877.41
2022-11-29T17:09:40.656Z,100876.63
2022-11-29T17:12:14.061Z,100879.38
2022-11-29T17:14:44.251Z,100875.91
2022-11-29T17:17:15.058Z,100882.94
2022-11-29T17:19:46.170Z,100881.25
2022-11-29T17:22:15.373Z,100884.72
2022-11-29T17:24:47.980Z,100889.13
2022-11-29T17:27:20.844Z,100894.28
2022-11-29T17:29:50.277Z,100888.28
2022-11-29T17:32:26.363Z,100894.38
2022-11-29T17:34:58.196Z,100900.47
2022-11-29T17:37:26.479Z,100895.31
2022-11-29T17:39:54.447Z,100893.56
2022-11-29T17:42:23.233Z,100898.06
2022-11-29T17:44:53.607Z,100899.84
2022-11-29T17:47:25.004Z,100893.72
2022-11-29T17:49:56.080Z,100893.72
2022-11-29T17:52:24.609Z,100900.69
2022-11-29T17:54:53.091Z,100899.09
2022-11-29T17:57:22.801Z,100903.59
2022-11-29T17:59:50.720Z,100903.59
2022-11-29T18:02:21.971Z,100906.22
2022-11-29T18:04:51.620Z,100903.69
2022-11-29T18:07:20.035Z,100909.69
2022-11-29T18:09:49.795Z,100909.91
2022-11-29T18:12:20.517Z,100913.34
2022-11-29T18:14:50.128Z,100909.03
2022-11-29T18:17:21.346Z,100915.16
2022-11-29T18:19:54.077Z,100914.50
2022-11-29T18:22:22.961Z,100914.59
2022-11-29T18:24:51.777Z,100909.34
2022-11-29T18:27:21.608Z,100915.53
2022-11-29T18:29:50.376Z,100918.34
2022-11-29T18:32:18.779Z,100920.13
2022-11-29T18:34:47.829Z,100921.81
2022-11-29T18:37:28.394Z,100925.47
2022-11-29T18:40:06.448Z,100931.69
2022-11-29T18:42:34.468Z,100922.13
2022-11-29T18:45:02.543Z,100929.13
2022-11-29T18:47:33.450Z,100930.06
2022-11-29T18:50:02.267Z,100933.56
2022-11-29T18:52:35.338Z,100924.91
2022-11-29T18:55:09.294Z,100935.53
2022-11-29T18:57:37.736Z,100933.84
2022-11-29T19:00:07.508Z,100933.94
2022-11-29T19:02:36.854Z,100937.59
2022-11-29T19:05:05.578Z,100939.38
2022-11-29T19:07:38.845Z,100940.31
2022-11-29T19:10:08.684Z,100941.34
2022-11-29T19:12:39.170Z,100943.13
2022-11-29T19:15:09.064Z,100950.28
2022-11-29T19:17:42.853Z,100945.03
2022-11-29T19:20:13.434Z,100948.56
2022-11-29T19:22:43.380Z,100949.47
2022-11-29T19:25:14.442Z,100938.13
2022-11-29T19:27:48.444Z,100950.34
2022-11-29T19:30:17.629Z,100946.84
2022-11-29T19:32:45.937Z,100943.47
2022-11-29T19:35:14.174Z,100952.09
2022-11-29T19:37:48.681Z,100954.84
2022-11-29T19:40:21.191Z,100955.75
2022-11-29T19:42:49.589Z,100950.59
2022-11-29T19:45:23.276Z,100947.88
2022-11-29T19:47:54.871Z,100949.66
2022-11-29T19:50:24.537Z,100954.91
2022-11-29T19:52:55.332Z,100952.97
2022-11-29T19:55:24.748Z,100952.91
2022-11-29T19:57:53.532Z,100955.59
2022-11-29T20:00:24.661Z,100963.41
2022-11-29T20:02:52.840Z,100955.41
2022-11-29T20:05:20.951Z,100958.69
2022-11-29T20:07:49.971Z,100951.66
2022-11-29T20:10:20.448Z,100953.34
2022-11-29T20:12:50.911Z,100963.75
2022-11-29T20:15:19.148Z,100955.75
2022-11-29T20:17:48.962Z,100960.94
2022-11-29T20:20:22.292Z,100960.00
2022-11-29T20:22:54.663Z,100968.72
2022-11-29T20:25:27.267Z,100964.22
2022-11-29T20:27:56.263Z,100968.59
2022-11-29T20:30:26.147Z,100966.94
2022-11-29T20:32:56.775Z,100969.56
2022-11-29T20:35:27.371Z,100971.22
2022-11-29T20:38:08.166Z,100974.06
2022-11-29T20:40:46.531Z,100984.00
2022-11-29T20:43:24.980Z,100991.69
2022-11-29T20:45:53.806Z,100992.34
2022-11-29T20:48:24.401Z,100993.19
2022-11-29T20:51:00.742Z,100982.69
2022-11-29T20:53:35.435Z,100986.06
2022-11-29T20:56:06.562Z,100985.22
2022-11-29T20:58:36.170Z,100993.00
2022-11-29T21:01:08.297Z,100998.25
2022-11-29T21:03:39.095Z,100994.78
2022-11-29T21:06:10.223Z,100999.09
2022-11-29T21:08:38.771Z,100997.50
2022-11-29T21:11:10.542Z,100993.00
2022-11-29T21:13:40.064Z,100996.56
2022-11-29T21:16:11.824Z,100990.38
2022-11-29T21:18:44.014Z,100992.06
2022-11-29T21:21:25.050Z,100991.22
2022-11-29T21:24:03.747Z,100988.59
2022-11-29T21:26:41.979Z,100998.25
2022-11-29T21:29:17.012Z,100992.06
2022-11-29T21:31:46.516Z,100984.19
2022-11-29T21:34:15.182Z,100992.88
2022-11-29T21:36:44.917Z,100997.31
2022-11-29T21:39:18.867Z,100991.13
2022-11-29T21:41:49.977Z,100994.69
2022-11-29T21:44:18.344Z,100996.38
2022-11-29T21:46:47.524Z,100997.13
2022-11-29T21:49:16.648Z,100993.66
2022-11-29T21:51:45.336Z,100998.06
2022-11-29T21:54:14.844Z,100991.13
2022-11-29T21:56:43.637Z,100994.69
2022-11-29T21:59:13.573Z,100987.75
2022-11-29T22:01:43.046Z,100990.47
2022-11-29T22:04:11.884Z,100991.41
2022-11-29T22:06:40.833Z,100994.03
2022-11-29T22:09:09.207Z,100990.47
2022-11-29T22:11:38.399Z,100994.13
2022-11-29T22:14:18.363Z,100987.94
2022-11-29T22:16:50.382Z,100986.38
2022-11-29T22:19:20.693Z,100990.75
2022-11-29T22:21:51.153Z,100996.75
2022-11-29T22:24:21.636Z,100994.97
2022-11-29T22:26:51.646Z,100999.28
2022-11-29T22:29:20.945Z,100994.97
2022-11-29T22:31:52.969Z,101005.56
2022-11-29T22:34:21.725Z,101007.44
2022-11-29T22:36:50.205Z,101000.31
2022-11-29T22:39:19.306Z,101008.09
2022-11-29T22:41:54.693Z,101008.09
2022-11-29T22:44:23.624Z,101009.13
2022-11-29T22:46:56.263Z,101010.81
2022-11-29T22:49:25.085Z,101014.28
2022-11-29T22:51:53.460Z,101008.19
2022-11-29T22:54:21.562Z,101016.81
2022-11-29T22:56:52.213Z,101018.41
2022-11-29T22:59:20.502Z,101020.22
2022-11-29T23:01:49.782Z,101017.47
2022-11-29T23:04:20.026Z,101018.31
2022-11-29T23:06:48.237Z,101020.94
2022-11-29T23:09:21.676Z,101018.25
2022-11-29T23:11:58.660Z,101020.94
2022-11-29T23:14:28.125Z,101016.44
2022-11-29T23:16:56.983Z,101015.50
2022-11-29T23:19:27.459Z,101008.56
2022-11-29T23:21:56.531Z,101012.03
2022-11-29T23:24:25.779Z,101016.34
2022-11-29T23:26:55.832Z,101015.50
2022-11-29T23:29:27.413Z,101013.06
2022-11-29T23:31:55.390Z,101013.91
2022-11-29T23:34:29.392Z,101017.38
2022-11-29T23:36:57.430Z,101018.31
2022-11-29T23:39:30.286Z,101019.06
2022-11-29T23:41:59.738Z,101022.44
2022-11-29T23:44:31.234Z,101028.44
2022-11-29T23:47:03.482Z,101023.28
2022-11-29T23:49:35.293Z,101022.34
2022-11-29T23:52:04.217Z,101024.88
2022-11-29T23:54:32.294Z,101022.25
2022-11-29T23:57:00.895Z,101019.53
2022-11-29T23:59:30.474Z,101025.63
